Welcome to Northern Hawkes Bay. New Zealand.
PWS Header
      nz Flag



Hit Counter


W3C Valid W3C Valid logo


    Wairoa

Select any of the Stations below to visit their websites.










Historic Data from Weather Underground
Select the location of interest below. Wairoa is the default. Please have patience, this Data is slow to load in.
Northern Hawkes Bay Historical Data
Daily Summary for April 5, 2017 Units:  English    Metric   Both
« Previous Day
Next Day »
Daily Weekly Monthly Yearly Custom
  High: Low: Average:
Temperature: 68 °F 58.3 °F 61.7 °F
Dew Point: 66.4 °F 57.9 °F 61.2 °F
Humidity: 99% 88% 98%
Wind Speed: 15.2mph 0mph 3.4mph
Wind Gust: 22.1mph - -
Wind- - SSW
Pressure: 30 in 29.6 in -
Precipitation: 2.42 in    
Historical Graphs
 
 
Tabular Data for April 5, 2017
Time Temperature Dew Point Pressure Wind Wind Speed Wind Gust Humidity Rainfall Rate (Hourly) solar
00:04 59 °F 58.6 °F 30 in ESE 3.8 mph 15.9 mph 99% 0.12 in 0 W/m2
00:10 58.8 °F 58.6 °F 30 in SE 4.5 mph 14.5 mph 99% 0.12 in 0 W/m2
00:16 58.8 °F 58.6 °F 30 in SE 4.5 mph 14.5 mph 99% 0.14 in 0 W/m2
00:22 59 °F 58.6 °F 30 in SE 8.3 mph 13.6 mph 99% 0.13 in 0 W/m2
00:28 59.2 °F 58.8 °F 30 in SE 6.9 mph 12.1 mph 99% 0.15 in 0 W/m2
00:34 59.2 °F 58.8 °F 30 in SE 6 mph 16.8 mph 99% 0.15 in 0 W/m2
00:40 59 °F 58.6 °F 30 in ESE 5.4 mph 16.8 mph 99% 0.15 in 0 W/m2
00:46 59 °F 58.6 °F 30 in SE 8.3 mph 10.7 mph 99% 0.14 in 0 W/m2
00:52 59 °F 58.6 °F 30 in SE 4.5 mph 10.7 mph 99% 0.14 in 0 W/m2
00:58 59.2 °F 58.8 °F 30 in SE 5.4 mph 9.8 mph 99% 0.15 in 0 W/m2
01:04 59.4 °F 59.2 °F 30 in SSE 6 mph 13.6 mph 99% 0.17 in 0 W/m2
01:10 59 °F 58.6 °F 30 in SSE 3.8 mph 13.6 mph 99% 0.15 in 0 W/m2
01:16 59.2 °F 58.8 °F 30 in SSE 8.3 mph 13 mph 99% 0.17 in 0 W/m2
01:22 59.2 °F 58.8 °F 30 in SSE 4.5 mph 13 mph 99% 0.2 in 0 W/m2
01:28 59 °F 58.6 °F 30 in South 6 mph 13 mph 99% 0.2 in 0 W/m2
01:34 59.2 °F 58.8 °F 30 in South 6.9 mph 14.5 mph 99% 0.2 in 0 W/m2
01:40 59.2 °F 58.8 °F 30 in South 9.8 mph 14.5 mph 99% 0.22 in 0 W/m2
01:46 59.4 °F 59.2 °F 30 in South 10.7 mph 17.4 mph 99% 0.22 in 0 W/m2
01:52 59.4 °F 59.2 °F 30 in South 9.8 mph 18.3 mph 99% 0.25 in 0 W/m2
01:58 59.2 °F 58.8 °F 30 in South 10.7 mph 18.3 mph 99% 0.24 in 0 W/m2
02:04 59 °F 58.6 °F 30 in South 9.8 mph 15.9 mph 99% 0.22 in 0 W/m2
02:10 59 °F 58.6 °F 30 in South 9.8 mph 18.3 mph 99% 0.24 in 0 W/m2
02:16 59.2 °F 58.8 °F 30 in South 13 mph 18.3 mph 99% 0.24 in 0 W/m2
02:22 59.4 °F 59.2 °F 30 in South 13 mph 19 mph 99% 0.21 in 0 W/m2
02:28 59.2 °F 58.8 °F 30 in South 9.8 mph 22.1 mph 99% 0.2 in 0 W/m2
02:34 59.2 °F 58.8 °F 30 in South 15.2 mph 22.1 mph 99% 0.19 in 0 W/m2
02:40 59.4 °F 59.2 °F 30 in South 10.7 mph 22.1 mph 99% 0.18 in 0 W/m2
02:46 59.5 °F 59.4 °F 29.9 in SSW 9.2 mph 17.4 mph 99% 0.19 in 0 W/m2
02:52 59.5 °F 59.4 °F 29.9 in South 13.6 mph 18.3 mph 99% 0.18 in 0 W/m2
02:58 59.4 °F 59.2 °F 29.9 in SSW 10.7 mph 19 mph 99% 0.18 in 0 W/m2
03:04 59.5 °F 59.4 °F 29.9 in SSW 9.8 mph 19 mph 99% 0.18 in 0 W/m2
03:10 59.4 °F 59.2 °F 29.9 in SSW 9.8 mph 17.4 mph 99% 0.17 in 0 W/m2
03:16 59.5 °F 59.4 °F 29.9 in SSW 9.2 mph 17.4 mph 99% 0.17 in 0 W/m2
03:22 59.5 °F 59.4 °F 29.9 in SSW 8.3 mph 15.9 mph 99% 0.17 in 0 W/m2
03:28 59.7 °F 59.5 °F 29.9 in SW 8.3 mph 15.9 mph 99% 0.17 in 0 W/m2
03:34 59.7 °F 59.5 °F 29.9 in SSW 9.2 mph 18.3 mph 99% 0.17 in 0 W/m2
03:40 59.7 °F 59.5 °F 29.9 in SSW 9.2 mph 18.3 mph 99% 0.17 in 0 W/m2
03:46 59.9 °F 59.5 °F 29.9 in SSW 9.8 mph 14.5 mph 99% 0.17 in 0 W/m2
03:52 59.9 °F 59.5 °F 29.9 in SSW 11.4 mph 16.8 mph 99% 0.17 in 0 W/m2
03:58 59.9 °F 59.5 °F 29.9 in SW 10.7 mph 16.8 mph 99% 0.15 in 0 W/m2
04:04 60.1 °F 59.7 °F 29.9 in SW 8.3 mph 16.8 mph 99% 0.15 in 0 W/m2
04:10 60.1 °F 59.7 °F 29.9 in SW 11.4 mph 17.4 mph 99% 0.14 in 0 W/m2
04:16 60.1 °F 59.7 °F 29.9 in SW 9.2 mph 17.4 mph 99% 0.13 in 0 W/m2
04:22 60.1 °F 59.7 °F 29.9 in SW 8.3 mph 15.2 mph 99% 0.12 in 0 W/m2
04:27 60.1 °F 59.7 °F 29.9 in SW 7.6 mph 14.5 mph 99% 0.13 in 0 W/m2
04:34 59.9 °F 59.5 °F 29.9 in SW 11.4 mph 16.8 mph 99% 0.12 in 0 W/m2
04:40 59.9 °F 59.5 °F 29.9 in SW 5.4 mph 14.5 mph 99% 0.13 in 0 W/m2
04:45 59.9 °F 59.5 °F 29.9 in SW 7.6 mph 14.5 mph 99% 0.12 in 0 W/m2
04:52 59.9 °F 59.5 °F 29.9 in WSW 7.6 mph 15.2 mph 99% 0.11 in 0 W/m2
04:58 59.9 °F 59.5 °F 29.9 in WSW 5.4 mph 12.1 mph 99% 0.11 in 0 W/m2
05:04 59.9 °F 59.5 °F 29.8 in WSW 9.2 mph 13 mph 99% 0.11 in 0 W/m2
05:10 59.9 °F 59.5 °F 29.8 in West 3.8 mph 13 mph 99% 0.11 in 0 W/m2
05:16 59.7 °F 59.5 °F 29.8 in West 3.1 mph 9.2 mph 99% 0.11 in 0 W/m2
05:21 59.7 °F 59.5 °F 29.8 in West 4.5 mph 9.8 mph 99% 0.09 in 0 W/m2
05:28 59.7 °F 59.5 °F 29.8 in West 3.1 mph 9.8 mph 99% 0.08 in 0 W/m2
05:34 59.7 °F 59.5 °F 29.8 in West 2.2 mph 13.6 mph 99% 0.07 in 0 W/m2
05:40 59.7 °F 59.5 °F 29.8 in Calm   10.7 mph 99% 0.06 in 0 W/m2
05:45 59.7 °F 59.5 °F 29.8 in Calm   9.2 mph 99% 0.07 in 0 W/m2
05:52 59.7 °F 59.5 °F 29.8 in West 6 mph 11.4 mph 99% 0.06 in 0 W/m2
05:57 59.7 °F 59.5 °F 29.8 in West 3.8 mph 11.4 mph 99% 0.05 in 0 W/m2
06:04 59.7 °F 59.5 °F 29.8 in WNW 3.8 mph 5.4 mph 99% 0.05 in 0 W/m2
06:10 59.7 °F 59.5 °F 29.8 in NW 4.5 mph 8.3 mph 99% 0.05 in 0 W/m2
06:15 59.7 °F 59.5 °F 29.8 in NNW 3.1 mph 9.8 mph 99% 0.05 in 0 W/m2
06:22 59.5 °F 59.4 °F 29.8 in NNW 0.7 mph 6 mph 99% 0.05 in 0 W/m2
06:27 59.4 °F 59.2 °F 29.8 in Calm   5.4 mph 99% 0.05 in 0 W/m2
06:34 59.2 °F 58.8 °F 29.8 in Calm   5.4 mph 99% 0.06 in 0 W/m2
06:40 59.2 °F 58.8 °F 29.8 in NNW 3.8 mph 6.9 mph 99% 0.06 in 2 W/m2
06:46 59.2 °F 58.8 °F 29.8 in NNW 0.7 mph 6.9 mph 99% 0.06 in 3 W/m2
06:52 59 °F 58.6 °F 29.8 in NNW 3.1 mph 5.4 mph 99% 0.07 in 6 W/m2
06:57 58.8 °F 58.6 °F 29.8 in NNW 2.2 mph 5.4 mph 99% 0.06 in 17 W/m2
07:04 58.6 °F 58.5 °F 29.8 in North 1.6 mph 6.9 mph 99% 0.07 in 22 W/m2
07:10 58.5 °F 58.3 °F 29.8 in North 3.1 mph 6.9 mph 99% 0.07 in 44 W/m2
07:15 58.5 °F 58.3 °F 29.8 in NNW 1.6 mph 6 mph 99% 0.07 in 27 W/m2
07:22 58.5 °F 58.3 °F 29.8 in NNW 3.1 mph 7.6 mph 99% 0.07 in 20 W/m2
07:27 58.5 °F 58.3 °F 29.8 in NNW 5.4 mph 9.2 mph 99% 0.08 in 25 W/m2
07:34 58.5 °F 58.3 °F 29.8 in North 3.1 mph 9.2 mph 99% 0.08 in 18 W/m2
07:40 58.5 °F 58.3 °F 29.9 in North 3.1 mph 6.9 mph 99% 0.08 in 11 W/m2
07:45 58.5 °F 58.3 °F 29.9 in North 3.1 mph 7.6 mph 99% 0.08 in 10 W/m2
07:51 58.3 °F 57.9 °F 29.8 in North 3.8 mph 7.6 mph 99% 0.09 in 13 W/m2
07:57 58.3 °F 57.9 °F 29.8 in North 3.1 mph 8.3 mph 99% 0.12 in 20 W/m2
08:04 58.3 °F 57.9 °F 29.8 in North 3.1 mph 5.4 mph 99% 0.13 in 38 W/m2
08:10 58.5 °F 58.3 °F 29.8 in North 3.8 mph 6.9 mph 99% 0.14 in 44 W/m2
08:15 58.5 °F 58.3 °F 29.9 in North 4.5 mph 7.6 mph 99% 0.15 in 31 W/m2
08:21 58.5 °F 58.3 °F 29.8 in NNW 3.8 mph 7.6 mph 99% 0.17 in 51 W/m2
08:27 58.5 °F 58.3 °F 29.8 in North 3.1 mph 9.2 mph 99% 0.18 in 42 W/m2
08:33 58.5 °F 58.3 °F 29.9 in North 3.8 mph 9.2 mph 99% 0.18 in 38 W/m2
08:40 58.5 °F 58.3 °F 29.8 in North 1.6 mph 7.6 mph 99% 0.19 in 46 W/m2
08:45 58.5 °F 58.3 °F 29.8 in North 0.7 mph 6.9 mph 99% 0.18 in 57 W/m2
08:51 58.6 °F 58.5 °F 29.8 in Calm   5.4 mph 99% 0.18 in 93 W/m2
08:57 58.8 °F 58.6 °F 29.8 in North 1.6 mph 4.5 mph 99% 0.17 in 72 W/m2
09:04 59 °F 58.6 °F 29.9 in NNW 5.4 mph 7.6 mph 99% 0.13 in 35 W/m2
09:10 59 °F 58.6 °F 29.8 in NNW 3.1 mph 8.3 mph 99% 0.14 in 93 W/m2
09:16 59 °F 58.6 °F 29.8 in NNW 3.1 mph 6.9 mph 99% 0.15 in 105 W/m2
09:21 59 °F 58.6 °F 29.8 in North 1.6 mph 5.4 mph 99% 0.17 in 95 W/m2
09:27 59 °F 58.6 °F 29.8 in North 2.2 mph 6 mph 99% 0.14 in 80 W/m2
09:33 59 °F 58.6 °F 29.8 in North 3.1 mph 6 mph 99% 0.13 in 65 W/m2
09:40 59 °F 58.6 °F 29.8 in North 0.7 mph 6 mph 99% 0.13 in 61 W/m2
09:45 59 °F 58.6 °F 29.8 in NNW 3.8 mph 6.9 mph 99% 0.12 in 74 W/m2
09:51 59.2 °F 58.8 °F 29.8 in NNW 1.6 mph 6.9 mph 99% 0.11 in 112 W/m2
09:57 59.4 °F 59.2 °F 29.8 in North 2.2 mph 4.5 mph 99% 0.12 in 96 W/m2
10:03 59.2 °F 58.8 °F 29.8 in NNW 4.5 mph 6.9 mph 99% 0.12 in 73 W/m2
10:10 59.2 °F 58.8 °F 29.8 in NNW 3.8 mph 8.3 mph 99% 0.11 in 66 W/m2
10:15 59.2 °F 58.8 °F 29.8 in NW 3.1 mph 7.6 mph 99% 0.11 in 48 W/m2
10:21 59.2 °F 58.8 °F 29.8 in North 1.6 mph 6 mph 99% 0.09 in 32 W/m2
10:27 59.2 °F 58.8 °F 29.8 in North 3.1 mph 4.5 mph 99% 0.11 in 36 W/m2
10:33 59.2 °F 58.8 °F 29.8 in North 2.2 mph 5.4 mph 99% 0.11 in 76 W/m2
10:40 59.4 °F 59.2 °F 29.8 in North 0.7 mph 5.4 mph 99% 0.11 in 107 W/m2
10:45 59.5 °F 59.4 °F 29.8 in North 3.1 mph 6 mph 99% 0.12 in 142 W/m2
10:51 59.5 °F 59.4 °F 29.8 in North 3.1 mph 6.9 mph 99% 0.11 in 101 W/m2
10:57 59.4 °F 59.2 °F 29.8 in North 3.1 mph 6.9 mph 99% 0.11 in 59 W/m2
11:03 59.4 °F 59.2 °F 29.8 in Calm   6.9 mph 99% 0.13 in 64 W/m2
11:10 59.4 °F 59.2 °F 29.8 in Calm   3.8 mph 99% 0.14 in 57 W/m2
11:15 59.4 °F 59.2 °F 29.8 in North 0.7 mph 4.5 mph 99% 0.15 in 65 W/m2
11:21 59.5 °F 59.4 °F 29.8 in Calm   4.5 mph 99% 0.17 in 105 W/m2
11:27 59.9 °F 59.5 °F 29.8 in Calm   3.8 mph 99% 0.17 in 217 W/m2
11:33 60.4 °F 60.3 °F 29.8 in Calm   3.8 mph 99% 0.15 in 289 W/m2
11:40 60.4 °F 60.3 °F 29.8 in NNW 1.6 mph 6 mph 99% 0.14 in 244 W/m2
11:45 60.8 °F 60.3 °F 29.8 in North 2.2 mph 6 mph 98% 0.13 in 219 W/m2
11:51 61.2 °F 60.6 °F 29.8 in North 3.8 mph 5.4 mph 98% 0.13 in 176 W/m2
11:57 61 °F 60.4 °F 29.8 in North 1.6 mph 5.4 mph 98% 0.11 in 197 W/m2
12:03 61.3 °F 60.8 °F 29.8 in NNE 1.6 mph 4.5 mph 98% 0.08 in 151 W/m2
12:10 60.6 °F 60.4 °F 29.8 in Calm   6.9 mph 99% 0.07 in 107 W/m2
12:15 60.6 °F 60.4 °F 29.8 in NNE 3.8 mph 6.9 mph 99% 0.06 in 125 W/m2
12:21 60.6 °F 60.4 °F 29.8 in Calm   4.5 mph 99% 0.06 in 116 W/m2
12:27 61 °F 60.4 °F 29.8 in Calm   3.8 mph 98% 0.06 in 161 W/m2
12:33 61.2 °F 60.6 °F 29.8 in NNW 2.2 mph 6 mph 98% 0.07 in 202 W/m2
12:40 61 °F 60.4 °F 29.8 in NNW 5.4 mph 7.6 mph 98% 0.08 in 248 W/m2
12:45 61 °F 60.4 °F 29.8 in North 2.2 mph 7.6 mph 98% 0.08 in 274 W/m2
12:51 61.3 °F 60.8 °F 29.8 in North 2.2 mph 6 mph 98% 0.08 in 238 W/m2
12:57 61.5 °F 61 °F 29.8 in North 2.2 mph 4.5 mph 98% 0.08 in 255 W/m2
13:03 62.1 °F 61.5 °F 29.8 in NNW 1.6 mph 4.5 mph 98% 0.08 in 247 W/m2
13:10 62.6 °F 61.9 °F 29.8 in Calm   5.4 mph 97% 0.07 in 404 W/m2
13:15 63.1 °F 62.2 °F 29.8 in NNW 0.7 mph 5.4 mph 97% 0.05 in 293 W/m2
13:21 63.5 °F 62.8 °F 29.8 in Calm   5.4 mph 97% 0.04 in 299 W/m2
13:27 63.7 °F 62.2 °F 29.8 in NNW 2.2 mph 5.4 mph 95% 0.02 in 243 W/m2
13:33 63.5 °F 61.9 °F 29.8 in North 0.7 mph 4.5 mph 94% 0.01 in 205 W/m2
13:40 63.5 °F 61.5 °F 29.8 in North 1.6 mph 3.8 mph 93% 0 in 132 W/m2
13:45 63.5 °F 61.2 °F 29.7 in Calm   3.8 mph 92% 0 in 117 W/m2
13:51 63.5 °F 61.2 °F 29.7 in Calm     92% 0 in 85 W/m2
13:57 63.1 °F 60.8 °F 29.7 in Calm     92% 0 in 63 W/m2
14:03 62.8 °F 60.6 °F 29.7 in Calm     93% 0 in 45 W/m2
14:10 62.8 °F 60.6 °F 29.7 in Calm     93% 0 in 78 W/m2
14:15 63 °F 61.2 °F 29.7 in Calm     94% 0 in 56 W/m2
14:21 63.1 °F 61.3 °F 29.7 in Calm     94% 0 in 70 W/m2
14:27 63.1 °F 61.2 °F 29.7 in Calm     93% 0 in 132 W/m2
14:33 63.3 °F 61.3 °F 29.7 in Calm   0.7 mph 93% 0 in 103 W/m2
14:40 63.3 °F 61.3 °F 29.7 in Calm     93% 0 in 125 W/m2
14:45 63.3 °F 61 °F 29.7 in Calm     92% 0 in 95 W/m2
14:51 63.3 °F 61 °F 29.7 in Calm     92% 0 in 64 W/m2
14:57 63.3 °F 61.3 °F 29.7 in Calm     93% 0 in 72 W/m2
15:03 63.5 °F 61.5 °F 29.7 in Calm     93% 0 in 80 W/m2
15:10 63.7 °F 61.5 °F 29.7 in Calm     93% 0 in 92 W/m2
15:15 63.5 °F 61.2 °F 29.7 in Calm     92% 0 in 84 W/m2
15:21 63.5 °F 61.5 °F 29.7 in Calm   3.1 mph 93% 0 in 65 W/m2
15:27 63.5 °F 61.5 °F 29.7 in Calm   3.1 mph 93% 0 in 67 W/m2
15:33 63.5 °F 61.5 °F 29.7 in Calm     93% 0 in 79 W/m2
15:40 63.5 °F 61.5 °F 29.7 in Calm     93% 0 in 65 W/m2
15:45 63.3 °F 61.3 °F 29.7 in Calm     93% 0 in 43 W/m2
15:51 63.1 °F 61.2 °F 29.7 in Calm   0.7 mph 93% 0 in 36 W/m2
15:57 63 °F 61 °F 29.7 in NW 0.7 mph 3.1 mph 93% 0 in 31 W/m2
16:03 62.8 °F 60.6 °F 29.7 in Calm   3.1 mph 93% 0 in 33 W/m2
16:10 62.8 °F 61 °F 29.7 in Calm   2.2 mph 94% 0.01 in 49 W/m2
16:15 62.6 °F 61 °F 29.7 in North 2.2 mph 3.1 mph 94% 0.02 in 27 W/m2
16:21 62.6 °F 61.2 °F 29.7 in ENE 2.2 mph 3.8 mph 95% 0.02 in 17 W/m2
16:27 62.2 °F 61.2 °F 29.7 in East 0.7 mph 4.5 mph 96% 0.02 in 13 W/m2
16:33 62.2 °F 61.2 °F 29.7 in Calm   4.5 mph 96% 0.02 in 10 W/m2
16:40 62.2 °F 61.3 °F 29.7 in Calm   3.8 mph 97% 0.05 in 11 W/m2
16:45 62.2 °F 61.3 °F 29.7 in Calm   3.8 mph 97% 0.05 in 12 W/m2
16:51 62.2 °F 61.3 °F 29.7 in Calm   2.2 mph 97% 0.05 in 11 W/m2
16:57 62.2 °F 61.7 °F 29.7 in Calm   3.8 mph 98% 0.05 in 7 W/m2
17:03 62.4 °F 61.9 °F 29.7 in Calm   3.8 mph 98% 0.06 in 4 W/m2
17:10 62.6 °F 61.9 °F 29.7 in Calm   1.6 mph 97% 0.06 in 4 W/m2
17:15 63 °F 62.1 °F 29.7 in Calm   2.2 mph 97% 0.05 in 3 W/m2
17:21 63.1 °F 62.2 °F 29.7 in Calm   1.6 mph 97% 0.05 in 3 W/m2
17:27 63.1 °F 62.2 °F 29.7 in WNW 0.7 mph 3.1 mph 97% 0.06 in 2 W/m2
17:33 63.1 °F 62.2 °F 29.7 in Calm   3.1 mph 97% 0.06 in 1 W/m2
17:40 63.1 °F 62.2 °F 29.7 in Calm   0.7 mph 97% 0.05 in 0 W/m2
17:45 63.5 °F 62.8 °F 29.7 in West 2.2 mph 3.8 mph 97% 0.05 in 0 W/m2
17:51 63.5 °F 62.8 °F 29.7 in Calm   4.5 mph 97% 0.07 in 0 W/m2
17:57 63.5 °F 62.8 °F 29.7 in Calm   3.1 mph 97% 0.08 in 0 W/m2
18:03 63.5 °F 62.8 °F 29.6 in ENE 3.1 mph 7.6 mph 97% 0.08 in 0 W/m2
18:10 65.1 °F 64.9 °F 29.7 in NNE 4.5 mph 13 mph 99% 0.09 in 0 W/m2
18:15 65.7 °F 65.5 °F 29.6 in NE 3.1 mph 13 mph 99% 0.12 in 0 W/m2
18:21 65.7 °F 65.5 °F 29.7 in NNE 7.6 mph 12.1 mph 99% 0.13 in 0 W/m2
18:27 66 °F 65.8 °F 29.7 in North 3.8 mph 13 mph 99% 0.13 in 0 W/m2
18:33 66 °F 65.8 °F 29.7 in North 5.4 mph 13 mph 99% 0.14 in 0 W/m2
18:40 65.8 °F 65.3 °F 29.7 in NNW 2.2 mph 7.6 mph 98% 0.17 in 0 W/m2
18:45 65.7 °F 65.1 °F 29.6 in NNW 2.2 mph 4.5 mph 98% 0.17 in 0 W/m2
18:51 65.5 °F 64.9 °F 29.7 in Calm   3.8 mph 98% 0.14 in 0 W/m2
18:57 65.3 °F 64.8 °F 29.7 in Calm   2.2 mph 98% 0.14 in 0 W/m2
19:03 65.1 °F 64.6 °F 29.7 in Calm   2.2 mph 98% 0.15 in 0 W/m2
19:10 65.3 °F 64.8 °F 29.7 in NNW 5.4 mph 6.9 mph 98% 0.15 in 0 W/m2
19:15 65.3 °F 64.9 °F 29.7 in Calm   7.6 mph 99% 0.19 in 0 W/m2
19:21 65.1 °F 64.9 °F 29.7 in Calm   7.6 mph 99% 0.2 in 0 W/m2
19:27 65.1 °F 64.9 °F 29.7 in Calm   1.6 mph 99% 0.21 in 0 W/m2
19:33 64.9 °F 64.8 °F 29.7 in Calm   2.2 mph 99% 0.21 in 0 W/m2
19:40 64.8 °F 64.6 °F 29.7 in Calm   2.2 mph 99% 0.2 in 0 W/m2
19:45 64.9 °F 64.8 °F 29.7 in Calm   2.2 mph 99% 0.27 in 0 W/m2
19:51 65.1 °F 64.9 °F 29.7 in NE 3.1 mph 5.4 mph 99% 0.32 in 0 W/m2
19:57 65.1 °F 64.9 °F 29.7 in ENE 3.1 mph 6 mph 99% 0.32 in 0 W/m2
20:03 65.1 °F 64.9 °F 29.7 in East 4.5 mph 9.8 mph 99% 0.32 in 0 W/m2
20:10 65.1 °F 64.9 °F 29.7 in ENE 8.3 mph 12.1 mph 99% 0.32 in 0 W/m2
20:15 65.1 °F 64.9 °F 29.7 in ENE 2.2 mph 12.1 mph 99% 0.28 in 0 W/m2
20:21 65.1 °F 64.9 °F 29.7 in East 3.8 mph 9.2 mph 99% 0.27 in 0 W/m2
20:27 65.1 °F 64.9 °F 29.6 in ENE 4.5 mph 7.6 mph 99% 0.27 in 0 W/m2
20:33 65.1 °F 64.9 °F 29.6 in East 9.8 mph 13.6 mph 99% 0.26 in 0 W/m2
20:40 65.1 °F 64.9 °F 29.6 in East 10.7 mph 13.6 mph 99% 0.25 in 0 W/m2
20:45 65.3 °F 64.9 °F 29.6 in East 6 mph 13 mph 99% 0.19 in 0 W/m2
20:51 65.3 °F 64.9 °F 29.6 in ENE 6.9 mph 13 mph 99% 0.14 in 0 W/m2
20:57 65.3 °F 64.9 °F 29.6 in NE 9.2 mph 10.7 mph 99% 0.14 in 0 W/m2
21:03 65.1 °F 64.9 °F 29.6 in NE 6 mph 10.7 mph 99% 0.12 in 0 W/m2
21:10 65.1 °F 64.9 °F 29.6 in ENE 6 mph 9.8 mph 99% 0.12 in 0 W/m2
21:15 65.1 °F 64.9 °F 29.6 in ENE 1.6 mph 9.8 mph 99% 0.09 in 0 W/m2
21:21 65.1 °F 64.9 °F 29.6 in Calm   7.6 mph 99% 0.09 in 0 W/m2
21:27 64.9 °F 64.8 °F 29.6 in Calm   2.2 mph 99% 0.07 in 0 W/m2
21:33 65.1 °F 64.9 °F 29.6 in Calm   2.2 mph 99% 0.06 in 0 W/m2
21:40 64.9 °F 64.8 °F 29.6 in Calm   2.2 mph 99% 0.05 in 0 W/m2
21:45 64.8 °F 64.6 °F 29.6 in Calm     99% 0.05 in 0 W/m2
21:51 64.8 °F 64.6 °F 29.6 in Calm   0.7 mph 99% 0.05 in 0 W/m2
21:57 64.8 °F 64.6 °F 29.6 in Calm   0.7 mph 99% 0.04 in 0 W/m2
22:03 64.6 °F 64.2 °F 29.6 in Calm     99% 0.02 in 0 W/m2
22:10 64.6 °F 64.2 °F 29.6 in Calm     99% 0.01 in 0 W/m2
22:15 64.6 °F 64.2 °F 29.6 in Calm     99% 0.01 in 0 W/m2
22:21 64.4 °F 64 °F 29.6 in SE 0.7 mph 1.6 mph 99% 0 in 0 W/m2
22:27 64.6 °F 64.2 °F 29.6 in Calm   2.2 mph 99% 0 in 0 W/m2
22:33 64.6 °F 64.2 °F 29.6 in Calm   2.2 mph 99% 0 in 0 W/m2
22:40 64.8 °F 64.6 °F 29.6 in Calm   0.7 mph 99% 0 in 0 W/m2
22:45 64.9 °F 64.8 °F 29.6 in North 1.6 mph 3.8 mph 99% 0 in 0 W/m2
22:51 65.1 °F 64.9 °F 29.6 in North 3.8 mph 6 mph 99% 0 in 0 W/m2
22:57 65.3 °F 64.9 °F 29.6 in NNE 2.2 mph 6 mph 99% 0 in 0 W/m2
23:03 65.7 °F 65.5 °F 29.6 in North 3.8 mph 10.7 mph 99% 0 in 0 W/m2
23:10 66.2 °F 65.8 °F 29.6 in North 6 mph 10.7 mph 99% 0 in 0 W/m2
23:15 66.6 °F 66.4 °F 29.6 in North 4.5 mph 9.2 mph 99% 0 in 0 W/m2
23:21 66.9 °F 66 °F 29.6 in NNE 3.8 mph 9.2 mph 97% 0 in 0 W/m2
23:27 67.1 °F 66 °F 29.6 in North 2.2 mph 6 mph 96% 0 in 0 W/m2
23:33 66.9 °F 65.5 °F 29.6 in North 3.1 mph 6 mph 95% 0 in 0 W/m2
23:40 66.9 °F 65.1 °F 29.6 in NNE 4.5 mph 6.9 mph 94% 0 in 0 W/m2
23:45 67.1 °F 64.9 °F 29.6 in NNE 4.5 mph 6.9 mph 93% 0 in 0 W/m2
23:51 67.8 °F 64.8 °F 29.6 in NNE 5.4 mph 11.4 mph 90% 0 in 0 W/m2
23:57 68 °F 64.2 °F 29.6 in NNE 3.8 mph 10.7 mph 88% 0 in 0 W/m2
Northern Hawkes Bay. New Zealand Historic Data
Compliments of Weather Underground - 2 mb